sensor_id;sensor_type;location;lat;lon;timestamp;pressure;altitude;pressure_sealevel;temperature
20058;BMP180;10189;49.546;7.906;2023-07-28T00:00:17;97363.00;;;19.10
20058;BMP180;10189;49.546;7.906;2023-07-28T00:02:43;97357.00;;;19.00
20058;BMP180;10189;49.546;7.906;2023-07-28T00:05:09;97359.00;;;19.10
20058;BMP180;10189;49.546;7.906;2023-07-28T00:07:35;97370.00;;;19.10
20058;BMP180;10189;49.546;7.906;2023-07-28T00:10:03;97358.00;;;19.00
20058;BMP180;10189;49.546;7.906;2023-07-28T00:12:29;97370.00;;;19.10
20058;BMP180;10189;49.546;7.906;2023-07-28T00:14:55;97364.00;;;19.10
20058;BMP180;10189;49.546;7.906;2023-07-28T00:17:22;97358.00;;;19.10
20058;BMP180;10189;49.546;7.906;2023-07-28T00:19:48;97367.00;;;19.00
20058;BMP180;10189;49.546;7.906;2023-07-28T00:22:14;97362.00;;;19.00
20058;BMP180;10189;49.546;7.906;2023-07-28T00:24:40;97350.00;;;19.00
20058;BMP180;10189;49.546;7.906;2023-07-28T00:27:06;97349.00;;;19.00
20058;BMP180;10189;49.546;7.906;2023-07-28T00:29:32;97354.00;;;19.00
20058;BMP180;10189;49.546;7.906;2023-07-28T00:31:58;97358.00;;;19.00
20058;BMP180;10189;49.546;7.906;2023-07-28T00:34:25;97343.00;;;19.10
20058;BMP180;10189;49.546;7.906;2023-07-28T00:36:51;97341.00;;;19.10
20058;BMP180;10189;49.546;7.906;2023-07-28T00:39:17;97349.00;;;18.90
20058;BMP180;10189;49.546;7.906;2023-07-28T00:41:44;97339.00;;;19.00
20058;BMP180;10189;49.546;7.906;2023-07-28T00:44:11;97332.00;;;19.00
20058;BMP180;10189;49.546;7.906;2023-07-28T00:46:37;97324.00;;;18.90
20058;BMP180;10189;49.546;7.906;2023-07-28T00:49:03;97336.00;;;18.90
20058;BMP180;10189;49.546;7.906;2023-07-28T00:51:31;97353.00;;;18.90
20058;BMP180;10189;49.546;7.906;2023-07-28T00:53:58;97340.00;;;18.90
20058;BMP180;10189;49.546;7.906;2023-07-28T00:56:26;97348.00;;;18.90
20058;BMP180;10189;49.546;7.906;2023-07-28T00:58:53;97341.00;;;19.00
20058;BMP180;10189;49.546;7.906;2023-07-28T01:01:19;97343.00;;;19.00
20058;BMP180;10189;49.546;7.906;2023-07-28T01:03:48;97330.00;;;19.00
20058;BMP180;10189;49.546;7.906;2023-07-28T01:09:16;97340.00;;;19.00
20058;BMP180;10189;49.546;7.906;2023-07-28T01:11:58;97338.00;;;19.00
20058;BMP180;10189;49.546;7.906;2023-07-28T01:14:25;97339.00;;;19.00
20058;BMP180;10189;49.546;7.906;2023-07-28T01:16:52;97344.00;;;19.10
20058;BMP180;10189;49.546;7.906;2023-07-28T01:19:21;97346.00;;;19.00
20058;BMP180;10189;49.546;7.906;2023-07-28T01:25:18;97353.00;;;19.00
20058;BMP180;10189;49.546;7.906;2023-07-28T01:27:49;97341.00;;;18.90
20058;BMP180;10189;49.546;7.906;2023-07-28T01:30:17;97328.00;;;19.00
20058;BMP180;10189;49.546;7.906;2023-07-28T01:32:45;97344.00;;;19.00
20058;BMP180;10189;49.546;7.906;2023-07-28T01:35:11;97334.00;;;18.90
20058;BMP180;10189;49.546;7.906;2023-07-28T01:37:37;97331.00;;;19.00
20058;BMP180;10189;49.546;7.906;2023-07-28T01:40:04;97321.00;;;18.90
20058;BMP180;10189;49.546;7.906;2023-07-28T01:42:30;97310.00;;;18.90
20058;BMP180;10189;49.546;7.906;2023-07-28T01:44:57;97316.00;;;18.90
20058;BMP180;10189;49.546;7.906;2023-07-28T01:47:23;97328.00;;;18.90
20058;BMP180;10189;49.546;7.906;2023-07-28T01:49:49;97335.00;;;18.90
20058;BMP180;10189;49.546;7.906;2023-07-28T01:52:15;97331.00;;;18.90
20058;BMP180;10189;49.546;7.906;2023-07-28T01:54:41;97332.00;;;19.00
20058;BMP180;10189;49.546;7.906;2023-07-28T01:57:07;97331.00;;;18.90
20058;BMP180;10189;49.546;7.906;2023-07-28T01:59:33;97323.00;;;18.90
20058;BMP180;10189;49.546;7.906;2023-07-28T02:02:00;97326.00;;;18.80
20058;BMP180;10189;49.546;7.906;2023-07-28T02:04:26;97329.00;;;18.80
20058;BMP180;10189;49.546;7.906;2023-07-28T02:06:52;97321.00;;;18.90
20058;BMP180;10189;49.546;7.906;2023-07-28T02:09:18;97321.00;;;18.90
20058;BMP180;10189;49.546;7.906;2023-07-28T02:11:44;97335.00;;;18.70
20058;BMP180;10189;49.546;7.906;2023-07-28T02:14:10;97336.00;;;18.80
20058;BMP180;10189;49.546;7.906;2023-07-28T02:16:36;97323.00;;;18.90
20058;BMP180;10189;49.546;7.906;2023-07-28T02:19:03;97320.00;;;18.80
20058;BMP180;10189;49.546;7.906;2023-07-28T02:21:29;97319.00;;;18.80
20058;BMP180;10189;49.546;7.906;2023-07-28T02:23:55;97322.00;;;18.80
20058;BMP180;10189;49.546;7.906;2023-07-28T02:26:22;97312.00;;;18.80
20058;BMP180;10189;49.546;7.906;2023-07-28T02:28:48;97324.00;;;18.80
20058;BMP180;10189;49.546;7.906;2023-07-28T02:31:14;97320.00;;;18.80
20058;BMP180;10189;49.546;7.906;2023-07-28T02:33:40;97310.00;;;18.80
20058;BMP180;10189;49.546;7.906;2023-07-28T02:36:08;97308.00;;;18.90
20058;BMP180;10189;49.546;7.906;2023-07-28T02:38:34;97316.00;;;18.80
20058;BMP180;10189;49.546;7.906;2023-07-28T02:41:01;97311.00;;;18.80
20058;BMP180;10189;49.546;7.906;2023-07-28T02:43:30;97312.00;;;18.80
20058;BMP180;10189;49.546;7.906;2023-07-28T02:45:57;97325.00;;;18.80
20058;BMP180;10189;49.546;7.906;2023-07-28T02:48:24;97324.00;;;18.80
20058;BMP180;10189;49.546;7.906;2023-07-28T02:50:52;97319.00;;;18.90
20058;BMP180;10189;49.546;7.906;2023-07-28T02:53:19;97319.00;;;18.90
20058;BMP180;10189;49.546;7.906;2023-07-28T02:55:47;97328.00;;;18.90
20058;BMP180;10189;49.546;7.906;2023-07-28T02:58:14;97329.00;;;18.80
20058;BMP180;10189;49.546;7.906;2023-07-28T03:00:42;97340.00;;;18.80
20058;BMP180;10189;49.546;7.906;2023-07-28T03:03:11;97336.00;;;18.80
20058;BMP180;10189;49.546;7.906;2023-07-28T03:05:38;97328.00;;;18.80
20058;BMP180;10189;49.546;7.906;2023-07-28T03:08:25;97324.00;;;18.90
20058;BMP180;10189;49.546;7.906;2023-07-28T03:11:00;97323.00;;;18.80
20058;BMP180;10189;49.546;7.906;2023-07-28T03:13:29;97327.00;;;18.90
20058;BMP180;10189;49.546;7.906;2023-07-28T03:15:55;97327.00;;;18.90
20058;BMP180;10189;49.546;7.906;2023-07-28T03:18:23;97323.00;;;18.90
20058;BMP180;10189;49.546;7.906;2023-07-28T03:20:49;97333.00;;;19.00
20058;BMP180;10189;49.546;7.906;2023-07-28T03:23:15;97324.00;;;18.90
20058;BMP180;10189;49.546;7.906;2023-07-28T03:25:41;97328.00;;;18.90
20058;BMP180;10189;49.546;7.906;2023-07-28T03:28:06;97326.00;;;18.90
20058;BMP180;10189;49.546;7.906;2023-07-28T03:30:32;97331.00;;;18.90
20058;BMP180;10189;49.546;7.906;2023-07-28T03:32:58;97330.00;;;18.90
20058;BMP180;10189;49.546;7.906;2023-07-28T03:35:24;97329.00;;;18.90
20058;BMP180;10189;49.546;7.906;2023-07-28T03:38:00;97322.00;;;19.00
20058;BMP180;10189;49.546;7.906;2023-07-28T03:40:26;97323.00;;;19.00
20058;BMP180;10189;49.546;7.906;2023-07-28T03:42:54;97325.00;;;18.90
20058;BMP180;10189;49.546;7.906;2023-07-28T03:45:20;97327.00;;;19.00
20058;BMP180;10189;49.546;7.906;2023-07-28T03:47:46;97335.00;;;19.00
20058;BMP180;10189;49.546;7.906;2023-07-28T03:50:12;97331.00;;;19.00
20058;BMP180;10189;49.546;7.906;2023-07-28T03:52:38;97327.00;;;19.00
20058;BMP180;10189;49.546;7.906;2023-07-28T03:55:04;97331.00;;;18.90
20058;BMP180;10189;49.546;7.906;2023-07-28T03:57:30;97334.00;;;18.90
20058;BMP180;10189;49.546;7.906;2023-07-28T03:59:55;97329.00;;;19.00
20058;BMP180;10189;49.546;7.906;2023-07-28T04:02:21;97335.00;;;19.00
20058;BMP180;10189;49.546;7.906;2023-07-28T04:04:54;97341.00;;;19.00
20058;BMP180;10189;49.546;7.906;2023-07-28T04:07:20;97337.00;;;18.90
20058;BMP180;10189;49.546;7.906;2023-07-28T04:09:46;97338.00;;;19.00
20058;BMP180;10189;49.546;7.906;2023-07-28T04:12:12;97351.00;;;19.00
20058;BMP180;10189;49.546;7.906;2023-07-28T04:14:38;97345.00;;;19.00
20058;BMP180;10189;49.546;7.906;2023-07-28T04:17:04;97352.00;;;19.00
20058;BMP180;10189;49.546;7.906;2023-07-28T04:19:30;97354.00;;;19.00
20058;BMP180;10189;49.546;7.906;2023-07-28T04:21:57;97362.00;;;19.00
20058;BMP180;10189;49.546;7.906;2023-07-28T04:24:26;97360.00;;;19.00
20058;BMP180;10189;49.546;7.906;2023-07-28T04:26:53;97360.00;;;19.00
20058;BMP180;10189;49.546;7.906;2023-07-28T04:29:19;97361.00;;;19.00
20058;BMP180;10189;49.546;7.906;2023-07-28T04:31:45;97361.00;;;19.10
20058;BMP180;10189;49.546;7.906;2023-07-28T04:34:15;97365.00;;;19.10
20058;BMP180;10189;49.546;7.906;2023-07-28T04:37:00;97372.00;;;19.10
20058;BMP180;10189;49.546;7.906;2023-07-28T04:39:34;97365.00;;;19.10
20058;BMP180;10189;49.546;7.906;2023-07-28T04:42:00;97378.00;;;19.10
20058;BMP180;10189;49.546;7.906;2023-07-28T04:44:26;97369.00;;;19.10
20058;BMP180;10189;49.546;7.906;2023-07-28T04:46:57;97369.00;;;19.10
20058;BMP180;10189;49.546;7.906;2023-07-28T04:49:23;97378.00;;;19.10
20058;BMP180;10189;49.546;7.906;2023-07-28T04:52:08;97389.00;;;19.20
20058;BMP180;10189;49.546;7.906;2023-07-28T04:54:43;97386.00;;;19.20
20058;BMP180;10189;49.546;7.906;2023-07-28T04:57:09;97387.00;;;19.20
20058;BMP180;10189;49.546;7.906;2023-07-28T04:59:37;97387.00;;;19.20
20058;BMP180;10189;49.546;7.906;2023-07-28T05:02:03;97386.00;;;19.20
20058;BMP180;10189;49.546;7.906;2023-07-28T05:04:29;97385.00;;;19.20
20058;BMP180;10189;49.546;7.906;2023-07-28T05:06:55;97390.00;;;19.30
20058;BMP180;10189;49.546;7.906;2023-07-28T05:09:21;97391.00;;;19.20
20058;BMP180;10189;49.546;7.906;2023-07-28T05:11:47;97390.00;;;19.30
20058;BMP180;10189;49.546;7.906;2023-07-28T05:14:13;97391.00;;;19.30
20058;BMP180;10189;49.546;7.906;2023-07-28T05:16:39;97399.00;;;19.40
20058;BMP180;10189;49.546;7.906;2023-07-28T05:19:12;97389.00;;;19.30
20058;BMP180;10189;49.546;7.906;2023-07-28T05:22:10;97390.00;;;19.40
20058;BMP180;10189;49.546;7.906;2023-07-28T05:24:49;97398.00;;;19.50
20058;BMP180;10189;49.546;7.906;2023-07-28T05:27:15;97399.00;;;19.40
20058;BMP180;10189;49.546;7.906;2023-07-28T05:29:44;97396.00;;;19.40
20058;BMP180;10189;49.546;7.906;2023-07-28T05:32:11;97398.00;;;19.40
20058;BMP180;10189;49.546;7.906;2023-07-28T05:34:48;97390.00;;;19.40
20058;BMP180;10189;49.546;7.906;2023-07-28T05:37:14;97384.00;;;19.40
20058;BMP180;10189;49.546;7.906;2023-07-28T05:39:40;97393.00;;;19.40
20058;BMP180;10189;49.546;7.906;2023-07-28T05:42:06;97377.00;;;19.40
20058;BMP180;10189;49.546;7.906;2023-07-28T05:44:34;97375.00;;;19.40
20058;BMP180;10189;49.546;7.906;2023-07-28T05:47:00;97381.00;;;19.60
20058;BMP180;10189;49.546;7.906;2023-07-28T05:49:26;97390.00;;;19.60
20058;BMP180;10189;49.546;7.906;2023-07-28T05:51:52;97383.00;;;19.70
20058;BMP180;10189;49.546;7.906;2023-07-28T05:54:18;97388.00;;;19.70
20058;BMP180;10189;49.546;7.906;2023-07-28T05:56:44;97398.00;;;19.60
20058;BMP180;10189;49.546;7.906;2023-07-28T05:59:10;97407.00;;;19.70
20058;BMP180;10189;49.546;7.906;2023-07-28T06:01:36;97404.00;;;19.80
20058;BMP180;10189;49.546;7.906;2023-07-28T06:04:22;97408.00;;;19.60
20058;BMP180;10189;49.546;7.906;2023-07-28T06:06:51;97414.00;;;19.70
20058;BMP180;10189;49.546;7.906;2023-07-28T06:09:17;97409.00;;;19.80
20058;BMP180;10189;49.546;7.906;2023-07-28T06:11:45;97418.00;;;20.10
20058;BMP180;10189;49.546;7.906;2023-07-28T06:14:12;97407.00;;;20.00
20058;BMP180;10189;49.546;7.906;2023-07-28T06:16:38;97410.00;;;20.20
20058;BMP180;10189;49.546;7.906;2023-07-28T06:19:04;97413.00;;;20.40
20058;BMP180;10189;49.546;7.906;2023-07-28T06:21:31;97421.00;;;20.40
20058;BMP180;10189;49.546;7.906;2023-07-28T06:23:57;97410.00;;;20.70
20058;BMP180;10189;49.546;7.906;2023-07-28T06:26:23;97428.00;;;20.70
20058;BMP180;10189;49.546;7.906;2023-07-28T06:28:49;97420.00;;;20.60
20058;BMP180;10189;49.546;7.906;2023-07-28T06:31:15;97423.00;;;20.70
20058;BMP180;10189;49.546;7.906;2023-07-28T06:33:41;97430.00;;;20.80
20058;BMP180;10189;49.546;7.906;2023-07-28T06:36:07;97430.00;;;20.80
20058;BMP180;10189;49.546;7.906;2023-07-28T06:38:33;97430.00;;;21.00
20058;BMP180;10189;49.546;7.906;2023-07-28T06:40:59;97420.00;;;21.20
20058;BMP180;10189;49.546;7.906;2023-07-28T06:43:25;97428.00;;;21.20
20058;BMP180;10189;49.546;7.906;2023-07-28T06:45:53;97434.00;;;21.00
20058;BMP180;10189;49.546;7.906;2023-07-28T06:48:19;97434.00;;;21.40
20058;BMP180;10189;49.546;7.906;2023-07-28T06:50:45;97426.00;;;21.20
20058;BMP180;10189;49.546;7.906;2023-07-28T06:53:11;97440.00;;;21.20
20058;BMP180;10189;49.546;7.906;2023-07-28T06:55:37;97451.00;;;21.10
20058;BMP180;10189;49.546;7.906;2023-07-28T06:58:05;97449.00;;;21.10
20058;BMP180;10189;49.546;7.906;2023-07-28T07:00:32;97453.00;;;21.30
20058;BMP180;10189;49.546;7.906;2023-07-28T07:02:59;97443.00;;;21.30
20058;BMP180;10189;49.546;7.906;2023-07-28T07:05:25;97447.00;;;21.20
20058;BMP180;10189;49.546;7.906;2023-07-28T07:07:51;97454.00;;;21.10
20058;BMP180;10189;49.546;7.906;2023-07-28T07:10:18;97441.00;;;21.30
20058;BMP180;10189;49.546;7.906;2023-07-28T07:12:44;97450.00;;;21.70
20058;BMP180;10189;49.546;7.906;2023-07-28T07:15:10;97449.00;;;21.70
20058;BMP180;10189;49.546;7.906;2023-07-28T07:17:37;97449.00;;;21.70
20058;BMP180;10189;49.546;7.906;2023-07-28T07:20:04;97452.00;;;22.10
20058;BMP180;10189;49.546;7.906;2023-07-28T07:22:31;97450.00;;;22.10
20058;BMP180;10189;49.546;7.906;2023-07-28T07:24:57;97452.00;;;22.10
20058;BMP180;10189;49.546;7.906;2023-07-28T07:27:24;97445.00;;;22.00
20058;BMP180;10189;49.546;7.906;2023-07-28T07:29:51;97446.00;;;21.90
20058;BMP180;10189;49.546;7.906;2023-07-28T07:32:17;97441.00;;;22.30
20058;BMP180;10189;49.546;7.906;2023-07-28T07:34:43;97458.00;;;22.20
20058;BMP180;10189;49.546;7.906;2023-07-28T07:37:09;97454.00;;;22.50
20058;BMP180;10189;49.546;7.906;2023-07-28T07:39:35;97451.00;;;22.60
20058;BMP180;10189;49.546;7.906;2023-07-28T07:42:02;97444.00;;;22.60
20058;BMP180;10189;49.546;7.906;2023-07-28T07:44:28;97444.00;;;22.70
20058;BMP180;10189;49.546;7.906;2023-07-28T07:46:55;97444.00;;;22.90
20058;BMP180;10189;49.546;7.906;2023-07-28T07:49:21;97440.00;;;23.30
20058;BMP180;10189;49.546;7.906;2023-07-28T07:51:48;97459.00;;;23.70
20058;BMP180;10189;49.546;7.906;2023-07-28T07:54:14;97457.00;;;23.30
20058;BMP180;10189;49.546;7.906;2023-07-28T07:56:44;97451.00;;;23.30
20058;BMP180;10189;49.546;7.906;2023-07-28T07:59:12;97464.00;;;23.70
20058;BMP180;10189;49.546;7.906;2023-07-28T08:01:38;97468.00;;;23.90
20058;BMP180;10189;49.546;7.906;2023-07-28T08:04:04;97467.00;;;23.90
20058;BMP180;10189;49.546;7.906;2023-07-28T08:06:29;97468.00;;;23.30
20058;BMP180;10189;49.546;7.906;2023-07-28T08:08:55;97471.00;;;23.10
20058;BMP180;10189;49.546;7.906;2023-07-28T08:11:22;97472.00;;;22.90
20058;BMP180;10189;49.546;7.906;2023-07-28T08:13:48;97479.00;;;22.90
20058;BMP180;10189;49.546;7.906;2023-07-28T08:16:14;97476.00;;;23.40
20058;BMP180;10189;49.546;7.906;2023-07-28T08:18:40;97491.00;;;23.60
20058;BMP180;10189;49.546;7.906;2023-07-28T08:21:06;97487.00;;;23.90
20058;BMP180;10189;49.546;7.906;2023-07-28T08:23:31;97485.00;;;24.00
20058;BMP180;10189;49.546;7.906;2023-07-28T08:25:57;97484.00;;;24.10
20058;BMP180;10189;49.546;7.906;2023-07-28T08:28:24;97491.00;;;23.70
20058;BMP180;10189;49.546;7.906;2023-07-28T08:30:56;97481.00;;;23.50
20058;BMP180;10189;49.546;7.906;2023-07-28T08:33:22;97482.00;;;23.30
20058;BMP180;10189;49.546;7.906;2023-07-28T08:35:48;97487.00;;;23.00
20058;BMP180;10189;49.546;7.906;2023-07-28T08:38:14;97490.00;;;23.40
20058;BMP180;10189;49.546;7.906;2023-07-28T08:40:40;97484.00;;;23.40
20058;BMP180;10189;49.546;7.906;2023-07-28T08:43:08;97486.00;;;23.90
20058;BMP180;10189;49.546;7.906;2023-07-28T08:45:34;97480.00;;;23.70
20058;BMP180;10189;49.546;7.906;2023-07-28T08:47:59;97491.00;;;24.10
20058;BMP180;10189;49.546;7.906;2023-07-28T08:50:25;97487.00;;;24.50
20058;BMP180;10189;49.546;7.906;2023-07-28T08:52:52;97487.00;;;24.60
20058;BMP180;10189;49.546;7.906;2023-07-28T08:55:18;97490.00;;;24.00
20058;BMP180;10189;49.546;7.906;2023-07-28T08:57:43;97495.00;;;23.60
20058;BMP180;10189;49.546;7.906;2023-07-28T09:00:11;97504.00;;;23.50
20058;BMP180;10189;49.546;7.906;2023-07-28T09:02:40;97514.00;;;23.20
20058;BMP180;10189;49.546;7.906;2023-07-28T09:05:07;97501.00;;;23.00
20058;BMP180;10189;49.546;7.906;2023-07-28T09:07:36;97511.00;;;22.90
20058;BMP180;10189;49.546;7.906;2023-07-28T09:10:03;97519.00;;;23.00
20058;BMP180;10189;49.546;7.906;2023-07-28T09:12:33;97519.00;;;22.60
20058;BMP180;10189;49.546;7.906;2023-07-28T09:14:58;97526.00;;;22.60
20058;BMP180;10189;49.546;7.906;2023-07-28T09:17:24;97515.00;;;23.10
20058;BMP180;10189;49.546;7.906;2023-07-28T09:19:55;97514.00;;;23.30
20058;BMP180;10189;49.546;7.906;2023-07-28T09:22:23;97511.00;;;23.40
20058;BMP180;10189;49.546;7.906;2023-07-28T09:24:50;97516.00;;;23.40
20058;BMP180;10189;49.546;7.906;2023-07-28T09:27:24;97524.00;;;23.30
20058;BMP180;10189;49.546;7.906;2023-07-28T09:29:54;97518.00;;;23.50
20058;BMP180;10189;49.546;7.906;2023-07-28T09:32:33;97514.00;;;23.70
20058;BMP180;10189;49.546;7.906;2023-07-28T09:35:07;97510.00;;;24.30
20058;BMP180;10189;49.546;7.906;2023-07-28T09:37:38;97504.00;;;24.80
20058;BMP180;10189;49.546;7.906;2023-07-28T09:40:10;97502.00;;;24.70
20058;BMP180;10189;49.546;7.906;2023-07-28T09:42:50;97510.00;;;24.20
20058;BMP180;10189;49.546;7.906;2023-07-28T09:45:18;97522.00;;;23.90
20058;BMP180;10189;49.546;7.906;2023-07-28T09:47:50;97525.00;;;23.60
20058;BMP180;10189;49.546;7.906;2023-07-28T09:50:23;97525.00;;;23.50
20058;BMP180;10189;49.546;7.906;2023-07-28T09:52:56;97537.00;;;23.40
20058;BMP180;10189;49.546;7.906;2023-07-28T09:55:25;97540.00;;;23.50
20058;BMP180;10189;49.546;7.906;2023-07-28T09:57:55;97527.00;;;23.60
20058;BMP180;10189;49.546;7.906;2023-07-28T10:00:23;97538.00;;;23.90
20058;BMP180;10189;49.546;7.906;2023-07-28T10:02:50;97535.00;;;24.00
20058;BMP180;10189;49.546;7.906;2023-07-28T10:05:16;97531.00;;;23.80
20058;BMP180;10189;49.546;7.906;2023-07-28T10:07:48;97544.00;;;23.30
20058;BMP180;10189;49.546;7.906;2023-07-28T10:10:15;97544.00;;;23.20
20058;BMP180;10189;49.546;7.906;2023-07-28T10:12:45;97544.00;;;23.30
20058;BMP180;10189;49.546;7.906;2023-07-28T10:15:17;97544.00;;;23.40
20058;BMP180;10189;49.546;7.906;2023-07-28T10:17:53;97548.00;;;23.30
20058;BMP180;10189;49.546;7.906;2023-07-28T10:20:40;97554.00;;;23.30
20058;BMP180;10189;49.546;7.906;2023-07-28T10:23:20;97547.00;;;23.60
20058;BMP180;10189;49.546;7.906;2023-07-28T10:25:57;97553.00;;;24.00
20058;BMP180;10189;49.546;7.906;2023-07-28T10:28:36;97555.00;;;23.50
20058;BMP180;10189;49.546;7.906;2023-07-28T10:31:10;97552.00;;;23.70
20058;BMP180;10189;49.546;7.906;2023-07-28T10:33:47;97557.00;;;24.00
20058;BMP180;10189;49.546;7.906;2023-07-28T10:36:17;97547.00;;;24.30
20058;BMP180;10189;49.546;7.906;2023-07-28T10:38:43;97547.00;;;24.50
20058;BMP180;10189;49.546;7.906;2023-07-28T10:41:15;97547.00;;;24.60
20058;BMP180;10189;49.546;7.906;2023-07-28T10:43:43;97544.00;;;24.90
20058;BMP180;10189;49.546;7.906;2023-07-28T10:46:11;97545.00;;;25.20
20058;BMP180;10189;49.546;7.906;2023-07-28T10:48:48;97536.00;;;25.50
20058;BMP180;10189;49.546;7.906;2023-07-28T10:51:26;97547.00;;;25.60
20058;BMP180;10189;49.546;7.906;2023-07-28T10:53:56;97541.00;;;25.30
20058;BMP180;10189;49.546;7.906;2023-07-28T10:56:24;97539.00;;;24.90
20058;BMP180;10189;49.546;7.906;2023-07-28T10:59:02;97555.00;;;24.70
20058;BMP180;10189;49.546;7.906;2023-07-28T11:01:40;97565.00;;;24.20
20058;BMP180;10189;49.546;7.906;2023-07-28T11:04:20;97559.00;;;24.00
20058;BMP180;10189;49.546;7.906;2023-07-28T11:06:51;97561.00;;;23.90
20058;BMP180;10189;49.546;7.906;2023-07-28T11:09:21;97559.00;;;23.80
20058;BMP180;10189;49.546;7.906;2023-07-28T11:11:49;97575.00;;;23.60
20058;BMP180;10189;49.546;7.906;2023-07-28T11:14:17;97579.00;;;22.80
20058;BMP180;10189;49.546;7.906;2023-07-28T11:16:45;97589.00;;;22.50
20058;BMP180;10189;49.546;7.906;2023-07-28T11:19:13;97586.00;;;22.70
20058;BMP180;10189;49.546;7.906;2023-07-28T11:21:42;97592.00;;;22.30
20058;BMP180;10189;49.546;7.906;2023-07-28T11:24:09;97581.00;;;22.50
20058;BMP180;10189;49.546;7.906;2023-07-28T11:26:39;97582.00;;;22.80
20058;BMP180;10189;49.546;7.906;2023-07-28T11:29:05;97582.00;;;23.00
20058;BMP180;10189;49.546;7.906;2023-07-28T11:31:32;97579.00;;;23.10
20058;BMP180;10189;49.546;7.906;2023-07-28T11:33:59;97581.00;;;23.30
20058;BMP180;10189;49.546;7.906;2023-07-28T11:36:28;97589.00;;;23.00
20058;BMP180;10189;49.546;7.906;2023-07-28T11:38:58;97587.00;;;22.90
20058;BMP180;10189;49.546;7.906;2023-07-28T11:41:26;97584.00;;;22.80
20058;BMP180;10189;49.546;7.906;2023-07-28T11:43:53;97584.00;;;22.50
20058;BMP180;10189;49.546;7.906;2023-07-28T11:46:43;97579.00;;;22.30
20058;BMP180;10189;49.546;7.906;2023-07-28T11:49:18;97585.00;;;22.60
20058;BMP180;10189;49.546;7.906;2023-07-28T11:51:58;97578.00;;;23.00
20058;BMP180;10189;49.546;7.906;2023-07-28T11:54:26;97572.00;;;23.20
20058;BMP180;10189;49.546;7.906;2023-07-28T11:56:56;97574.00;;;23.40
20058;BMP180;10189;49.546;7.906;2023-07-28T11:59:24;97579.00;;;23.80
20058;BMP180;10189;49.546;7.906;2023-07-28T12:02:00;97569.00;;;23.70
20058;BMP180;10189;49.546;7.906;2023-07-28T12:04:34;97569.00;;;24.10
20058;BMP180;10189;49.546;7.906;2023-07-28T12:07:16;97557.00;;;24.30
20058;BMP180;10189;49.546;7.906;2023-07-28T12:12:13;97558.00;;;24.40
20058;BMP180;10189;49.546;7.906;2023-07-28T12:14:40;97548.00;;;24.60
20058;BMP180;10189;49.546;7.906;2023-07-28T12:17:19;97558.00;;;24.20
20058;BMP180;10189;49.546;7.906;2023-07-28T12:20:08;97553.00;;;24.10
20058;BMP180;10189;49.546;7.906;2023-07-28T12:22:45;97558.00;;;23.80
20058;BMP180;10189;49.546;7.906;2023-07-28T12:25:12;97563.00;;;23.60
20058;BMP180;10189;49.546;7.906;2023-07-28T12:27:38;97577.00;;;23.60
20058;BMP180;10189;49.546;7.906;2023-07-28T12:30:05;97567.00;;;23.50
20058;BMP180;10189;49.546;7.906;2023-07-28T12:32:33;97572.00;;;23.40
20058;BMP180;10189;49.546;7.906;2023-07-28T12:34:59;97576.00;;;22.90
20058;BMP180;10189;49.546;7.906;2023-07-28T12:37:27;97579.00;;;22.70
20058;BMP180;10189;49.546;7.906;2023-07-28T12:39:53;97573.00;;;23.20
20058;BMP180;10189;49.546;7.906;2023-07-28T12:42:19;97577.00;;;23.30
20058;BMP180;10189;49.546;7.906;2023-07-28T12:44:46;97574.00;;;23.50
20058;BMP180;10189;49.546;7.906;2023-07-28T12:47:12;97574.00;;;23.60
20058;BMP180;10189;49.546;7.906;2023-07-28T12:49:38;97566.00;;;23.80
20058;BMP180;10189;49.546;7.906;2023-07-28T12:52:06;97566.00;;;23.70
20058;BMP180;10189;49.546;7.906;2023-07-28T12:54:35;97572.00;;;23.80
20058;BMP180;10189;49.546;7.906;2023-07-28T12:57:01;97581.00;;;24.00
20058;BMP180;10189;49.546;7.906;2023-07-28T12:59:28;97570.00;;;23.60
20058;BMP180;10189;49.546;7.906;2023-07-28T13:01:55;97580.00;;;23.50
20058;BMP180;10189;49.546;7.906;2023-07-28T13:04:22;97578.00;;;23.20
20058;BMP180;10189;49.546;7.906;2023-07-28T13:06:48;97583.00;;;23.20
20058;BMP180;10189;49.546;7.906;2023-07-28T13:09:15;97589.00;;;23.20
20058;BMP180;10189;49.546;7.906;2023-07-28T13:11:41;97585.00;;;23.20
20058;BMP180;10189;49.546;7.906;2023-07-28T13:18:13;97602.00;;;22.80
20058;BMP180;10189;49.546;7.906;2023-07-28T13:20:50;97594.00;;;22.60
20058;BMP180;10189;49.546;7.906;2023-07-28T13:23:44;97597.00;;;22.50
20058;BMP180;10189;49.546;7.906;2023-07-28T13:26:12;97600.00;;;22.40
20058;BMP180;10189;49.546;7.906;2023-07-28T13:28:46;97590.00;;;22.50
20058;BMP180;10189;49.546;7.906;2023-07-28T13:31:16;97596.00;;;22.50
20058;BMP180;10189;49.546;7.906;2023-07-28T13:33:53;97594.00;;;22.50
20058;BMP180;10189;49.546;7.906;2023-07-28T13:36:20;97592.00;;;22.40
20058;BMP180;10189;49.546;7.906;2023-07-28T13:38:48;97593.00;;;22.50
20058;BMP180;10189;49.546;7.906;2023-07-28T13:42:02;97586.00;;;22.70
20058;BMP180;10189;49.546;7.906;2023-07-28T13:45:27;97582.00;;;22.70
20058;BMP180;10189;49.546;7.906;2023-07-28T13:48:21;97580.00;;;22.80
20058;BMP180;10189;49.546;7.906;2023-07-28T13:51:48;97578.00;;;22.60
20058;BMP180;10189;49.546;7.906;2023-07-28T13:54:26;97576.00;;;22.90
20058;BMP180;10189;49.546;7.906;2023-07-28T13:57:20;97585.00;;;22.90
20058;BMP180;10189;49.546;7.906;2023-07-28T14:00:23;97586.00;;;22.70
20058;BMP180;10189;49.546;7.906;2023-07-28T14:02:51;97581.00;;;22.60
20058;BMP180;10189;49.546;7.906;2023-07-28T14:05:17;97586.00;;;22.30
20058;BMP180;10189;49.546;7.906;2023-07-28T14:07:45;97588.00;;;22.20
20058;BMP180;10189;49.546;7.906;2023-07-28T14:10:12;97587.00;;;22.20
20058;BMP180;10189;49.546;7.906;2023-07-28T14:12:38;97587.00;;;22.10
20058;BMP180;10189;49.546;7.906;2023-07-28T14:15:07;97587.00;;;21.90
20058;BMP180;10189;49.546;7.906;2023-07-28T14:17:34;97593.00;;;22.20
20058;BMP180;10189;49.546;7.906;2023-07-28T14:20:00;97593.00;;;22.10
20058;BMP180;10189;49.546;7.906;2023-07-28T14:22:26;97591.00;;;22.20
20058;BMP180;10189;49.546;7.906;2023-07-28T14:24:52;97594.00;;;22.20
20058;BMP180;10189;49.546;7.906;2023-07-28T14:27:18;97597.00;;;22.20
20058;BMP180;10189;49.546;7.906;2023-07-28T14:29:45;97589.00;;;22.00
20058;BMP180;10189;49.546;7.906;2023-07-28T14:32:11;97595.00;;;22.10